createdAt,value
2023-03-14T00:01:54.305Z,7.98
2023-03-14T00:04:25.981Z,7.95
2023-03-14T00:06:57.042Z,8.09
2023-03-14T00:09:31.263Z,8.04
2023-03-14T00:12:02.246Z,8.02
2023-03-14T00:14:34.586Z,8.01
2023-03-14T00:17:05.879Z,8.11
2023-03-14T00:19:37.737Z,8.27
2023-03-14T00:22:09.046Z,7.96
2023-03-14T00:24:42.320Z,8.33
2023-03-14T00:27:16.397Z,7.92
2023-03-14T00:29:48.212Z,8.06
2023-03-14T00:32:33.597Z,8.21
2023-03-14T00:35:11.027Z,7.97
2023-03-14T00:37:43.475Z,8.16
2023-03-14T00:40:19.168Z,7.98
2023-03-14T00:42:49.100Z,8.03
2023-03-14T00:45:23.764Z,8.11
2023-03-14T00:47:56.192Z,8.03
2023-03-14T00:50:27.184Z,7.84
2023-03-14T00:52:57.804Z,8.11
2023-03-14T00:55:30.241Z,8.15
2023-03-14T00:58:02.144Z,8.22
2023-03-14T01:00:33.787Z,8.45
2023-03-14T01:03:07.027Z,8.13
2023-03-14T01:05:37.532Z,8.32
2023-03-14T01:08:09.698Z,8.24
2023-03-14T01:10:43.198Z,8.23
2023-03-14T01:13:14.708Z,8.36
2023-03-14T01:15:47.141Z,8.13
2023-03-14T01:18:17.585Z,8.15
2023-03-14T01:20:48.814Z,8.29
2023-03-14T01:23:19.671Z,8.47
2023-03-14T01:25:56.731Z,8.25
2023-03-14T01:28:28.775Z,8.31
2023-03-14T01:31:00.948Z,8.19
2023-03-14T01:33:33.208Z,8.43
2023-03-14T01:36:05.312Z,8.33
2023-03-14T01:38:38.937Z,8.30
2023-03-14T01:41:18.148Z,8.39
2023-03-14T01:43:50.686Z,8.26
2023-03-14T01:46:32.503Z,8.32
2023-03-14T01:49:17.197Z,8.40
2023-03-14T01:51:53.460Z,8.32
2023-03-14T01:54:29.215Z,8.16
2023-03-14T01:57:10.595Z,8.20
2023-03-14T01:59:42.035Z,8.15
2023-03-14T02:02:15.960Z,8.44
2023-03-14T02:04:49.691Z,8.38
2023-03-14T02:07:26.790Z,8.13
2023-03-14T02:09:58.482Z,8.11
2023-03-14T02:12:32.717Z,8.24
2023-03-14T02:15:08.256Z,8.28
2023-03-14T02:17:38.979Z,8.04
2023-03-14T02:20:28.517Z,8.07
2023-03-14T02:23:00.112Z,8.13
2023-03-14T02:25:38.810Z,7.92
2023-03-14T02:28:10.970Z,8.25
2023-03-14T02:30:43.164Z,8.10
2023-03-14T02:33:19.494Z,7.96
2023-03-14T02:35:53.767Z,7.86
2023-03-14T02:38:28.496Z,7.81
2023-03-14T02:41:02.674Z,7.92
2023-03-14T02:43:41.086Z,7.76
2023-03-14T02:46:13.962Z,8.02
2023-03-14T02:48:48.802Z,8.18
2023-03-14T02:51:20.354Z,8.03
2023-03-14T02:53:53.417Z,8.21
2023-03-14T02:56:25.523Z,8.28
2023-03-14T02:58:58.957Z,8.20
2023-03-14T03:01:29.508Z,8.18
2023-03-14T03:03:59.604Z,8.22
2023-03-14T03:06:33.116Z,8.23
2023-03-14T03:09:04.203Z,8.27
2023-03-14T03:11:38.392Z,8.25
2023-03-14T03:14:11.097Z,8.23
2023-03-14T03:16:43.683Z,8.38
2023-03-14T03:19:15.067Z,8.40
2023-03-14T03:21:46.170Z,8.31
2023-03-14T03:24:16.888Z,8.44
2023-03-14T03:26:50.088Z,8.30
2023-03-14T03:29:23.775Z,8.15
2023-03-14T03:31:54.536Z,8.16
2023-03-14T03:34:25.767Z,8.45
2023-03-14T03:36:59.801Z,8.24
2023-03-14T03:39:31.322Z,8.02
2023-03-14T03:42:01.895Z,8.11
2023-03-14T03:44:35.912Z,8.47
2023-03-14T03:47:11.017Z,8.47
2023-03-14T03:49:42.711Z,8.19
2023-03-14T03:52:14.844Z,8.19
2023-03-14T03:54:45.969Z,8.25
2023-03-14T03:57:16.780Z,8.46
2023-03-14T03:59:50.196Z,8.38
2023-03-14T04:02:22.467Z,8.13
2023-03-14T04:04:53.252Z,8.35
2023-03-14T04:07:26.714Z,8.34
2023-03-14T04:09:59.374Z,8.44
2023-03-14T04:12:30.282Z,8.38
2023-03-14T04:15:07.678Z,8.19
2023-03-14T04:17:39.879Z,8.09
2023-03-14T04:20:14.233Z,8.43
2023-03-14T04:22:46.374Z,8.10
2023-03-14T04:25:19.283Z,8.21
2023-03-14T04:27:53.388Z,8.41
2023-03-14T04:30:30.531Z,8.06
2023-03-14T04:33:05.276Z,8.19
2023-03-14T04:35:36.797Z,8.25
2023-03-14T04:38:08.551Z,8.23
2023-03-14T04:40:43.566Z,8.25
2023-03-14T04:43:14.456Z,8.41
2023-03-14T04:45:50.030Z,8.34
2023-03-14T04:48:28.443Z,8.26
2023-03-14T04:51:02.252Z,8.30
2023-03-14T04:53:35.690Z,8.39
2023-03-14T04:56:07.161Z,8.51
2023-03-14T04:58:38.677Z,8.47
2023-03-14T05:01:13.010Z,8.52
2023-03-14T05:03:44.861Z,8.62
2023-03-14T05:06:18.892Z,8.63
2023-03-14T05:08:49.931Z,8.64
2023-03-14T05:11:23.579Z,8.71
2023-03-14T05:13:54.269Z,8.83
2023-03-14T05:16:26.849Z,8.83
2023-03-14T05:18:58.531Z,9.02
2023-03-14T05:21:31.138Z,9.00
2023-03-14T05:24:03.172Z,9.01
2023-03-14T05:26:34.722Z,8.83
2023-03-14T05:29:07.421Z,9.12
2023-03-14T05:31:39.311Z,9.14
2023-03-14T05:34:11.318Z,8.82
2023-03-14T05:36:42.746Z,9.10
2023-03-14T05:39:14.105Z,9.09
2023-03-14T05:41:45.140Z,9.17
2023-03-14T05:44:16.137Z,9.28
2023-03-14T05:46:49.160Z,9.28
2023-03-14T05:49:19.520Z,9.45
2023-03-14T05:51:50.727Z,9.31
2023-03-14T05:54:22.811Z,9.36
2023-03-14T05:56:53.396Z,9.50
2023-03-14T05:59:24.505Z,9.62
2023-03-14T06:01:56.771Z,9.66
2023-03-14T06:04:26.859Z,9.61
2023-03-14T06:06:58.451Z,9.66
2023-03-14T06:09:29.755Z,9.79
2023-03-14T06:12:01.469Z,9.78
2023-03-14T06:14:31.782Z,9.79
2023-03-14T06:17:04.429Z,9.89
2023-03-14T06:19:36.518Z,9.94
2023-03-14T06:22:06.734Z,9.94
2023-03-14T06:24:45.923Z,10.09
2023-03-14T06:27:16.850Z,10.20
2023-03-14T06:29:49.758Z,10.21
2023-03-14T06:32:22.463Z,10.25
2023-03-14T06:34:58.782Z,10.38
2023-03-14T06:37:33.393Z,10.37
2023-03-14T06:40:07.364Z,10.41
2023-03-14T06:42:38.904Z,10.41
2023-03-14T06:45:12.958Z,10.42
2023-03-14T06:47:47.481Z,10.46
2023-03-14T06:50:24.039Z,10.49
2023-03-14T06:52:58.573Z,10.52
2023-03-14T06:55:31.920Z,10.63
2023-03-14T06:58:03.429Z,10.71
2023-03-14T07:00:35.999Z,10.72
2023-03-14T07:03:12.952Z,10.73
2023-03-14T07:05:45.123Z,10.80
2023-03-14T07:08:17.676Z,10.83
2023-03-14T07:10:50.768Z,10.83
2023-03-14T07:13:23.330Z,10.84
2023-03-14T07:15:56.932Z,10.88
2023-03-14T07:18:30.600Z,10.91
2023-03-14T07:21:01.592Z,10.98
2023-03-14T07:23:32.678Z,11.04
2023-03-14T07:26:03.788Z,11.09
2023-03-14T07:28:36.525Z,11.12
2023-03-14T07:31:11.092Z,11.15
2023-03-14T07:33:47.728Z,11.18
2023-03-14T07:36:22.491Z,11.21
2023-03-14T07:38:56.530Z,11.27
2023-03-14T07:41:30.621Z,11.29
2023-03-14T07:44:02.934Z,11.38
2023-03-14T07:46:37.649Z,11.47
2023-03-14T07:49:11.931Z,11.56
2023-03-14T07:51:42.963Z,11.62
2023-03-14T07:54:16.010Z,11.77
2023-03-14T07:56:48.890Z,12.02
2023-03-14T07:59:24.082Z,12.06
2023-03-14T08:01:55.814Z,12.38
2023-03-14T08:04:29.214Z,12.40
2023-03-14T08:07:03.891Z,12.46
2023-03-14T08:09:34.787Z,12.53
2023-03-14T08:12:06.555Z,12.54
2023-03-14T08:14:38.160Z,12.64
2023-03-14T08:17:09.623Z,12.92
2023-03-14T08:19:45.332Z,12.93
2023-03-14T08:22:20.113Z,12.86
2023-03-14T08:24:52.337Z,13.09
2023-03-14T08:27:24.121Z,13.10
2023-03-14T08:29:57.552Z,13.19
2023-03-14T08:32:27.972Z,13.21
2023-03-14T08:35:01.314Z,13.26
2023-03-14T08:37:34.960Z,13.27
2023-03-14T08:40:09.400Z,13.29
2023-03-14T08:42:40.827Z,13.39
2023-03-14T08:45:15.898Z,13.55
2023-03-14T08:47:49.375Z,13.49
2023-03-14T08:50:25.341Z,13.59
2023-03-14T08:53:01.639Z,13.61
2023-03-14T08:55:32.207Z,13.74
2023-03-14T08:58:03.197Z,13.80
2023-03-14T09:00:33.617Z,13.90
2023-03-14T09:03:04.640Z,14.06
2023-03-14T09:05:39.204Z,14.41
2023-03-14T09:08:09.559Z,14.26
2023-03-14T09:10:41.221Z,14.51
2023-03-14T09:13:12.666Z,14.45
2023-03-14T09:15:43.667Z,14.59
2023-03-14T09:18:14.240Z,14.58
2023-03-14T09:20:46.665Z,14.63
2023-03-14T09:23:17.922Z,14.86
2023-03-14T09:25:48.132Z,14.92
2023-03-14T09:28:19.968Z,14.83
2023-03-14T09:30:50.878Z,14.86
2023-03-14T09:33:21.889Z,14.84
2023-03-14T09:35:55.167Z,14.92
2023-03-14T09:38:29.069Z,15.45
2023-03-14T09:41:02.358Z,15.22
2023-03-14T09:43:35.635Z,15.08
2023-03-14T09:46:07.093Z,15.07
2023-03-14T09:48:39.146Z,15.01
2023-03-14T09:51:17.943Z,14.75
2023-03-14T09:53:50.229Z,14.65
2023-03-14T09:56:23.459Z,14.76
2023-03-14T09:58:56.334Z,14.77
2023-03-14T10:01:32.395Z,14.73
2023-03-14T10:04:08.202Z,14.63
2023-03-14T10:06:40.380Z,14.78
2023-03-14T10:09:14.282Z,15.01
2023-03-14T10:11:45.927Z,14.82
2023-03-14T10:14:32.728Z,14.97
2023-03-14T10:17:11.671Z,14.94
2023-03-14T10:19:55.980Z,14.87
2023-03-14T10:22:33.054Z,14.89
2023-03-14T10:25:06.051Z,14.78
2023-03-14T10:27:38.647Z,14.92
2023-03-14T10:30:11.157Z,15.05
2023-03-14T10:32:50.229Z,15.16
2023-03-14T10:35:25.763Z,15.38
2023-03-14T10:38:00.849Z,16.17
2023-03-14T10:40:35.766Z,16.23
2023-03-14T10:43:22.781Z,16.36
2023-03-14T10:45:59.507Z,16.32
2023-03-14T10:48:35.539Z,16.27
2023-03-14T10:51:08.884Z,16.64
2023-03-14T10:53:49.918Z,16.26
2023-03-14T10:56:22.535Z,15.78
2023-03-14T10:58:54.958Z,16.25
2023-03-14T11:01:38.601Z,16.70
2023-03-14T11:04:21.182Z,16.36
2023-03-14T11:07:03.395Z,16.27
2023-03-14T11:09:42.983Z,16.26
2023-03-14T11:12:30.328Z,16.27
2023-03-14T11:15:06.226Z,15.89
2023-03-14T11:17:43.185Z,15.95
2023-03-14T11:20:35.204Z,15.77
2023-03-14T11:23:12.575Z,15.73
2023-03-14T11:25:51.040Z,16.16
2023-03-14T11:28:29.414Z,16.03
2023-03-14T11:31:07.714Z,16.04
2023-03-14T11:33:41.435Z,16.32
2023-03-14T11:36:12.432Z,16.43
2023-03-14T11:38:46.470Z,17.00
2023-03-14T11:41:21.478Z,17.07
2023-03-14T11:43:55.237Z,17.21
2023-03-14T11:46:29.162Z,17.63
2023-03-14T11:49:07.393Z,17.46
2023-03-14T11:51:40.896Z,17.51
2023-03-14T11:54:18.282Z,17.24
2023-03-14T11:56:54.572Z,17.33
2023-03-14T11:59:40.993Z,17.43
2023-03-14T12:02:19.637Z,17.30
2023-03-14T12:05:06.970Z,17.54
2023-03-14T12:07:43.202Z,17.55
2023-03-14T12:10:14.323Z,17.69
2023-03-14T12:12:47.297Z,17.57
2023-03-14T12:15:26.451Z,17.85
2023-03-14T12:17:59.969Z,17.83
2023-03-14T12:20:31.419Z,17.35
2023-03-14T12:23:07.750Z,17.07
2023-03-14T12:25:38.641Z,17.01
2023-03-14T12:28:22.285Z,16.94
2023-03-14T12:30:55.278Z,16.49
2023-03-14T12:33:45.235Z,16.80
2023-03-14T12:36:51.755Z,16.49
2023-03-14T12:39:34.473Z,16.20
2023-03-14T12:42:07.392Z,16.70
2023-03-14T12:44:48.600Z,16.28
2023-03-14T12:47:58.788Z,15.90
2023-03-14T12:50:42.829Z,15.87
2023-03-14T12:53:42.310Z,15.67
2023-03-14T12:56:26.069Z,15.66
2023-03-14T12:59:19.795Z,15.62
2023-03-14T13:01:57.964Z,15.69
2023-03-14T13:04:42.692Z,15.56
2023-03-14T13:07:16.991Z,15.34
2023-03-14T13:09:58.324Z,15.18
2023-03-14T13:12:37.661Z,15.46
2023-03-14T13:15:20.131Z,15.17
2023-03-14T13:17:53.130Z,15.23
2023-03-14T13:20:30.483Z,15.46
2023-03-14T13:23:01.045Z,15.31
2023-03-14T13:25:35.180Z,15.09
2023-03-14T13:28:05.983Z,15.25
2023-03-14T13:30:44.201Z,15.00
2023-03-14T13:33:22.391Z,15.08
2023-03-14T13:35:57.523Z,15.07
2023-03-14T13:38:28.978Z,15.03
2023-03-14T13:41:01.402Z,15.25
2023-03-14T13:43:35.599Z,15.20
2023-03-14T13:46:09.091Z,15.16
2023-03-14T13:48:46.264Z,15.31
2023-03-14T13:51:19.523Z,15.24
2023-03-14T13:53:51.948Z,15.18
2023-03-14T13:56:24.312Z,15.06
2023-03-14T13:58:54.636Z,14.87
2023-03-14T14:01:27.418Z,14.95
2023-03-14T14:04:00.925Z,15.37
2023-03-14T14:06:33.798Z,15.01
2023-03-14T14:09:06.401Z,15.10
2023-03-14T14:12:03.916Z,14.88
2023-03-14T14:14:42.766Z,14.97
2023-03-14T14:17:15.917Z,15.04
2023-03-14T14:19:47.790Z,14.98
2023-03-14T14:22:19.144Z,14.73
2023-03-14T14:24:53.398Z,14.97
2023-03-14T14:27:32.926Z,14.97
2023-03-14T14:30:05.452Z,14.75
2023-03-14T14:32:41.128Z,15.14
2023-03-14T14:35:26.175Z,14.90
2023-03-14T14:37:56.889Z,14.90
2023-03-14T14:40:29.889Z,14.85
2023-03-14T14:43:07.032Z,14.81
2023-03-14T14:45:38.259Z,14.85
2023-03-14T14:48:13.062Z,14.93
2023-03-14T14:51:02.572Z,14.96
2023-03-14T14:53:38.975Z,14.80
2023-03-14T14:56:18.252Z,14.83
2023-03-14T14:58:50.287Z,15.18
2023-03-14T15:01:22.292Z,15.32
2023-03-14T15:03:54.870Z,15.07
2023-03-14T15:06:32.738Z,15.26
2023-03-14T15:09:04.544Z,15.20
2023-03-14T15:11:35.593Z,15.06
2023-03-14T15:14:08.921Z,15.14
2023-03-14T15:16:42.604Z,15.16
2023-03-14T15:19:25.440Z,15.23
2023-03-14T15:21:58.362Z,15.05
2023-03-14T15:24:28.925Z,14.99
2023-03-14T15:27:01.123Z,15.28
2023-03-14T15:29:32.227Z,15.37
2023-03-14T15:32:02.914Z,15.17
2023-03-14T15:34:34.720Z,15.09
2023-03-14T15:37:14.146Z,15.42
2023-03-14T15:39:44.749Z,14.99
2023-03-14T15:42:16.256Z,15.27
2023-03-14T15:44:46.661Z,15.11
2023-03-14T15:47:18.426Z,14.95
2023-03-14T15:49:49.224Z,15.05
2023-03-14T15:52:22.650Z,14.82
2023-03-14T15:54:54.068Z,14.99
2023-03-14T15:57:26.623Z,15.05
2023-03-14T15:59:57.969Z,14.94
2023-03-14T16:02:29.345Z,14.88
2023-03-14T16:05:01.268Z,14.97
2023-03-14T16:07:34.605Z,15.09
2023-03-14T16:10:06.743Z,14.73
2023-03-14T16:12:41.323Z,14.82
2023-03-14T16:15:13.938Z,14.87
2023-03-14T16:17:44.976Z,14.76
2023-03-14T16:20:16.511Z,14.63
2023-03-14T16:22:48.921Z,14.71
2023-03-14T16:25:21.187Z,14.83
2023-03-14T16:28:05.186Z,14.70
2023-03-14T16:30:41.563Z,15.13
2023-03-14T16:33:13.254Z,14.80
2023-03-14T16:35:57.499Z,15.07
2023-03-14T16:41:24.519Z,14.93
2023-03-14T16:43:56.698Z,14.80
2023-03-14T16:46:29.664Z,14.66
2023-03-14T16:49:01.577Z,14.77
2023-03-14T16:51:33.636Z,14.46
2023-03-14T16:54:06.114Z,14.42
2023-03-14T16:56:37.992Z,14.38
2023-03-14T16:59:09.906Z,14.50
2023-03-14T17:01:41.628Z,14.61
2023-03-14T17:04:12.343Z,14.66
2023-03-14T17:06:45.111Z,14.52
2023-03-14T17:09:17.580Z,14.20
2023-03-14T17:11:52.427Z,14.35
2023-03-14T17:14:24.877Z,14.11
2023-03-14T17:16:55.906Z,14.34
2023-03-14T17:19:29.339Z,14.45
2023-03-14T17:22:21.325Z,14.26
2023-03-14T17:24:53.234Z,14.34
2023-03-14T17:27:23.932Z,14.03
2023-03-14T17:29:54.387Z,13.98
2023-03-14T17:32:27.248Z,13.51
2023-03-14T17:34:57.954Z,13.81
2023-03-14T17:37:29.038Z,13.47
2023-03-14T17:40:04.691Z,13.51
2023-03-14T17:42:39.940Z,13.55
2023-03-14T17:45:12.009Z,13.45
2023-03-14T17:47:44.420Z,13.31
2023-03-14T17:50:15.950Z,13.27
2023-03-14T17:52:46.797Z,13.41
2023-03-14T17:55:20.187Z,13.63
2023-03-14T17:57:52.144Z,13.56
2023-03-14T18:00:27.622Z,13.44
2023-03-14T18:02:59.746Z,13.39
2023-03-14T18:05:32.458Z,13.40
2023-03-14T18:08:04.053Z,13.20
2023-03-14T18:10:36.581Z,13.32
2023-03-14T18:13:07.666Z,13.55
2023-03-14T18:15:38.847Z,13.25
2023-03-14T18:18:11.439Z,13.24
2023-03-14T18:20:54.571Z,13.08
2023-03-14T18:23:25.964Z,13.01
2023-03-14T18:26:02.379Z,13.04
2023-03-14T18:28:33.146Z,13.68
2023-03-14T18:31:04.994Z,13.15
2023-03-14T18:33:40.607Z,12.97
2023-03-14T18:36:13.398Z,12.97
2023-03-14T18:38:46.354Z,12.82
2023-03-14T18:41:20.441Z,12.88
2023-03-14T18:43:52.901Z,12.99
2023-03-14T18:46:24.692Z,12.96
2023-03-14T18:48:58.303Z,12.91
2023-03-14T18:51:31.242Z,13.10
2023-03-14T18:54:09.310Z,13.05
2023-03-14T18:56:43.284Z,13.03
2023-03-14T18:59:14.219Z,13.13
2023-03-14T19:01:44.781Z,12.92
2023-03-14T19:04:15.518Z,12.85
2023-03-14T19:06:45.607Z,12.58
2023-03-14T19:09:17.748Z,12.88
2023-03-14T19:11:55.168Z,13.19
2023-03-14T19:14:26.258Z,12.77
2023-03-14T19:16:57.011Z,12.59
2023-03-14T19:19:28.560Z,12.64
2023-03-14T19:21:59.840Z,12.58
2023-03-14T19:24:30.221Z,12.47
2023-03-14T19:27:01.670Z,12.41
2023-03-14T19:29:35.828Z,12.35
2023-03-14T19:32:07.026Z,12.39
2023-03-14T19:34:38.417Z,12.42
2023-03-14T19:37:09.282Z,12.19
2023-03-14T19:39:39.950Z,12.35
2023-03-14T19:42:13.014Z,12.41
2023-03-14T19:44:45.069Z,12.46
2023-03-14T19:47:17.026Z,12.64
2023-03-14T19:49:47.814Z,12.68
2023-03-14T19:52:21.271Z,12.29
2023-03-14T19:54:53.558Z,12.29
2023-03-14T19:57:26.653Z,12.41
2023-03-14T19:59:58.495Z,12.41
2023-03-14T20:02:29.695Z,12.30
2023-03-14T20:05:02.993Z,12.67
2023-03-14T20:07:34.920Z,12.71
2023-03-14T20:10:11.846Z,13.06
2023-03-14T20:12:56.561Z,13.07
2023-03-14T20:15:29.040Z,12.91
2023-03-14T20:17:59.774Z,12.63
2023-03-14T20:20:31.930Z,12.74
2023-03-14T20:23:08.026Z,12.56
2023-03-14T20:25:40.084Z,12.49
2023-03-14T20:28:20.431Z,12.65
2023-03-14T20:30:54.418Z,12.30
2023-03-14T20:33:25.169Z,12.74
2023-03-14T20:35:59.763Z,12.65
2023-03-14T20:38:31.718Z,12.64
2023-03-14T20:41:02.582Z,12.51
2023-03-14T20:43:35.356Z,12.66
2023-03-14T20:46:06.439Z,12.93
2023-03-14T20:48:39.801Z,12.75
2023-03-14T20:51:12.909Z,12.47
2023-03-14T20:53:45.444Z,12.89
2023-03-14T20:56:15.597Z,12.90
2023-03-14T20:58:49.245Z,12.66
2023-03-14T21:01:20.603Z,12.50
2023-03-14T21:03:50.561Z,12.64
2023-03-14T21:06:22.456Z,12.69
2023-03-14T21:08:53.350Z,12.53
2023-03-14T21:11:23.661Z,12.31
2023-03-14T21:13:56.609Z,12.43
2023-03-14T21:16:28.442Z,12.68
2023-03-14T21:18:58.895Z,12.22
2023-03-14T21:21:29.618Z,12.24
2023-03-14T21:24:02.951Z,12.50
2023-03-14T21:26:35.666Z,12.38
2023-03-14T21:29:08.045Z,12.28
2023-03-14T21:31:41.874Z,12.10
2023-03-14T21:34:18.255Z,11.98
2023-03-14T21:36:50.767Z,12.16
2023-03-14T21:39:24.504Z,12.23
2023-03-14T21:41:55.920Z,11.97
2023-03-14T21:44:37.481Z,11.88
2023-03-14T21:47:09.071Z,11.84
2023-03-14T21:49:45.343Z,12.12
2023-03-14T21:52:18.130Z,12.11
2023-03-14T21:54:50.241Z,12.04
2023-03-14T21:57:31.478Z,12.17
2023-03-14T22:00:08.741Z,11.75
2023-03-14T22:02:44.092Z,11.71
2023-03-14T22:05:21.634Z,11.64
2023-03-14T22:07:53.200Z,11.98
2023-03-14T22:10:24.081Z,11.76
2023-03-14T22:12:58.200Z,11.85
2023-03-14T22:15:32.216Z,11.59
2023-03-14T22:18:05.810Z,11.78
2023-03-14T22:20:38.796Z,11.50
2023-03-14T22:23:10.450Z,11.39
2023-03-14T22:25:44.365Z,11.39
2023-03-14T22:28:16.431Z,11.43
2023-03-14T22:30:53.065Z,11.23
2023-03-14T22:33:26.813Z,11.41
2023-03-14T22:35:59.488Z,11.20
2023-03-14T22:38:33.653Z,11.34
2023-03-14T22:41:05.803Z,11.76
2023-03-14T22:43:36.997Z,11.47
2023-03-14T22:46:11.604Z,11.29
2023-03-14T22:48:43.819Z,11.23
2023-03-14T22:51:17.191Z,11.39
2023-03-14T22:53:48.174Z,11.46
2023-03-14T22:56:21.773Z,11.73
2023-03-14T22:58:53.670Z,11.58
2023-03-14T23:01:28.049Z,11.62
2023-03-14T23:03:58.780Z,11.60
2023-03-14T23:06:29.657Z,11.57
2023-03-14T23:09:02.653Z,11.50
2023-03-14T23:11:37.509Z,11.29
2023-03-14T23:14:08.353Z,11.23
2023-03-14T23:16:41.771Z,11.62
2023-03-14T23:19:12.966Z,11.58
2023-03-14T23:21:44.700Z,11.33
2023-03-14T23:24:16.569Z,11.40
2023-03-14T23:26:47.992Z,11.33
2023-03-14T23:29:18.844Z,11.37
2023-03-14T23:31:51.111Z,11.15
2023-03-14T23:34:23.434Z,11.04
2023-03-14T23:36:54.315Z,11.18
2023-03-14T23:39:26.017Z,11.45
2023-03-14T23:41:56.597Z,11.06
2023-03-14T23:44:29.222Z,11.11
2023-03-14T23:47:01.514Z,11.11
2023-03-14T23:49:35.368Z,11.25
2023-03-14T23:52:06.277Z,11.25
2023-03-14T23:54:38.922Z,11.14
2023-03-14T23:57:10.337Z,11.35
2023-03-14T23:59:43.506Z,10.94
